createdAt,value
2018-07-30T00:01:30.313Z,4.35
2018-07-30T00:03:58.690Z,4.53
2018-07-30T00:06:27.055Z,4.33
2018-07-30T00:08:55.405Z,4.33
2018-07-30T00:11:23.785Z,4.30
2018-07-30T00:13:52.165Z,4.33
2018-07-30T00:16:20.545Z,4.45
2018-07-30T00:18:48.921Z,4.50
2018-07-30T00:21:17.388Z,4.72
2018-07-30T00:23:46.939Z,4.42
2018-07-30T00:26:15.314Z,5.05
2018-07-30T00:28:44.234Z,4.37
2018-07-30T00:31:13.136Z,4.40
2018-07-30T00:33:41.684Z,4.65
2018-07-30T00:36:10.014Z,4.55
2018-07-30T00:38:38.389Z,4.75
2018-07-30T00:41:06.743Z,4.90
2018-07-30T00:43:35.138Z,4.75
2018-07-30T00:46:03.869Z,5.28
2018-07-30T00:48:32.495Z,5.30
2018-07-30T00:51:00.888Z,5.40
2018-07-30T00:53:29.588Z,5.10
2018-07-30T00:55:58.048Z,4.95
2018-07-30T00:58:26.421Z,4.78
2018-07-30T01:00:54.821Z,5.10
2018-07-30T01:03:23.251Z,4.95
2018-07-30T01:05:51.667Z,5.12
2018-07-30T01:08:20.591Z,5.35
2018-07-30T01:10:48.660Z,5.17
2018-07-30T01:13:17.219Z,4.87
2018-07-30T01:15:45.549Z,4.87
2018-07-30T01:18:13.888Z,5.17
2018-07-30T01:20:42.196Z,5.50
2018-07-30T01:23:10.565Z,5.00
2018-07-30T01:25:38.958Z,5.22
2018-07-30T01:28:07.318Z,5.37
2018-07-30T01:30:35.659Z,5.35
2018-07-30T01:33:04.119Z,5.30
2018-07-30T01:35:32.462Z,4.80
2018-07-30T01:38:00.908Z,5.42
2018-07-30T01:40:29.296Z,5.10
2018-07-30T01:42:57.658Z,4.90
2018-07-30T01:45:26.471Z,4.78
2018-07-30T01:47:54.826Z,5.00
2018-07-30T01:50:23.270Z,5.10
2018-07-30T01:52:51.600Z,4.78
2018-07-30T01:55:19.983Z,5.12
2018-07-30T01:57:48.301Z,4.85
2018-07-30T02:00:16.793Z,4.42
2018-07-30T02:02:45.127Z,4.83
2018-07-30T02:05:13.523Z,4.80
2018-07-30T02:07:42.619Z,4.83
2018-07-30T02:10:11.881Z,4.87
2018-07-30T02:12:41.087Z,4.50
2018-07-30T02:15:09.539Z,4.75
2018-07-30T02:17:37.912Z,4.37
2018-07-30T02:20:06.593Z,4.60
2018-07-30T02:22:34.947Z,4.90
2018-07-30T02:25:03.284Z,4.40
2018-07-30T02:27:31.610Z,4.80
2018-07-30T02:30:00.029Z,4.70
2018-07-30T02:32:29.140Z,4.37
2018-07-30T02:34:57.498Z,4.30
2018-07-30T02:37:25.841Z,4.58
2018-07-30T02:39:54.187Z,4.42
2018-07-30T02:42:29.071Z,4.15
2018-07-30T02:44:57.454Z,5.30
2018-07-30T02:47:25.797Z,4.92
2018-07-30T02:49:54.212Z,4.92
2018-07-30T02:52:22.646Z,5.08
2018-07-30T02:54:51.021Z,4.47
2018-07-30T02:57:19.643Z,4.58
2018-07-30T02:59:48.675Z,4.87
2018-07-30T03:02:17.300Z,4.70
2018-07-30T03:04:45.650Z,4.40
2018-07-30T03:07:14.099Z,4.72
2018-07-30T03:09:42.415Z,4.53
2018-07-30T03:12:10.855Z,4.65
2018-07-30T03:14:39.220Z,4.45
2018-07-30T03:17:07.560Z,4.83
2018-07-30T03:19:36.418Z,4.60
2018-07-30T03:22:05.617Z,4.75
2018-07-30T03:24:34.171Z,4.42
2018-07-30T03:27:02.506Z,4.53
2018-07-30T03:29:30.841Z,5.00
2018-07-30T03:31:59.220Z,4.55
2018-07-30T03:34:27.529Z,4.58
2018-07-30T03:36:55.861Z,4.85
2018-07-30T03:39:24.196Z,4.45
2018-07-30T03:41:52.565Z,4.37
2018-07-30T03:44:20.982Z,5.15
2018-07-30T03:46:49.409Z,4.92
2018-07-30T03:49:17.748Z,4.60
2018-07-30T03:51:46.284Z,4.33
2018-07-30T03:54:14.670Z,4.62
2018-07-30T03:56:43.059Z,4.72
2018-07-30T03:59:12.399Z,4.58
2018-07-30T04:01:41.215Z,4.60
2018-07-30T04:04:09.580Z,4.58
2018-07-30T04:06:37.925Z,4.55
2018-07-30T04:09:06.958Z,4.40
2018-07-30T04:11:35.523Z,4.87
2018-07-30T04:14:04.817Z,4.83
2018-07-30T04:16:37.700Z,4.60
2018-07-30T04:19:10.148Z,4.60
2018-07-30T04:21:38.581Z,5.60
2018-07-30T04:24:06.966Z,5.58
2018-07-30T04:26:35.319Z,11.80
2018-07-30T04:29:03.741Z,7.50
2018-07-30T04:31:32.077Z,4.83
2018-07-30T04:34:00.880Z,4.35
2018-07-30T04:36:29.695Z,4.42
2018-07-30T04:38:58.051Z,4.53
2018-07-30T04:41:26.553Z,5.20
2018-07-30T04:43:54.877Z,4.45
2018-07-30T04:46:23.489Z,4.72
2018-07-30T04:48:51.854Z,4.20
2018-07-30T04:51:20.196Z,4.00
2018-07-30T04:53:48.641Z,7.35
2018-07-30T04:56:17.646Z,8.48
2018-07-30T04:58:46.442Z,4.50
2018-07-30T05:01:14.936Z,10.32
2018-07-30T05:03:43.310Z,4.90
2018-07-30T05:06:11.750Z,7.75
2018-07-30T05:08:41.156Z,5.00
2018-07-30T05:11:09.545Z,5.47
2018-07-30T05:13:37.897Z,4.22
2018-07-30T05:16:06.249Z,4.20
2018-07-30T05:18:34.549Z,4.08
2018-07-30T05:21:03.032Z,4.20
2018-07-30T05:23:31.404Z,5.30
2018-07-30T05:25:59.853Z,6.78
2018-07-30T05:28:28.255Z,4.62
2018-07-30T05:30:57.053Z,4.53
2018-07-30T05:33:26.120Z,4.12
2018-07-30T05:35:54.543Z,9.30
2018-07-30T05:38:22.906Z,11.75
2018-07-30T05:40:51.316Z,5.17
2018-07-30T05:43:19.426Z,4.97
2018-07-30T05:45:47.787Z,4.47
2018-07-30T05:48:16.226Z,4.30
2018-07-30T05:50:44.930Z,4.30
2018-07-30T05:53:13.323Z,3.90
2018-07-30T05:55:41.713Z,3.85
2018-07-30T05:58:10.110Z,3.83
2018-07-30T06:00:38.491Z,4.05
2018-07-30T06:03:06.843Z,4.03
2018-07-30T06:05:35.249Z,4.08
2018-07-30T06:08:03.601Z,3.98
2018-07-30T06:10:31.972Z,4.05
2018-07-30T06:13:00.468Z,3.67
2018-07-30T06:15:28.868Z,3.62
2018-07-30T06:17:57.246Z,3.80
2018-07-30T06:20:25.618Z,3.50
2018-07-30T06:22:53.971Z,3.70
2018-07-30T06:25:22.342Z,3.83
2018-07-30T06:27:50.702Z,3.62
2018-07-30T06:30:19.076Z,4.20
2018-07-30T06:32:47.839Z,3.80
2018-07-30T06:35:16.299Z,3.30
2018-07-30T06:37:44.644Z,3.52
2018-07-30T06:40:13.002Z,3.67
2018-07-30T06:42:41.354Z,3.50
2018-07-30T06:45:09.704Z,3.67
2018-07-30T06:47:38.068Z,3.65
2018-07-30T06:50:06.440Z,3.52
2018-07-30T06:52:34.822Z,3.50
2018-07-30T06:55:03.305Z,3.55
2018-07-30T06:57:32.255Z,3.42
2018-07-30T07:00:01.274Z,3.47
2018-07-30T07:02:30.234Z,3.58
2018-07-30T07:04:58.621Z,3.40
2018-07-30T07:07:26.995Z,3.45
2018-07-30T07:09:55.741Z,3.10
2018-07-30T07:12:24.222Z,3.37
2018-07-30T07:14:52.591Z,3.27
2018-07-30T07:17:20.977Z,3.20
2018-07-30T07:19:49.317Z,3.47
2018-07-30T07:22:17.790Z,3.50
2018-07-30T07:24:46.153Z,3.40
2018-07-30T07:27:14.483Z,3.52
2018-07-30T07:29:42.947Z,3.50
2018-07-30T07:32:11.344Z,3.05
2018-07-30T07:34:39.689Z,3.20
2018-07-30T07:37:08.738Z,3.10
2018-07-30T07:39:37.108Z,3.08
2018-07-30T07:42:05.449Z,3.00
2018-07-30T07:44:33.810Z,3.02
2018-07-30T07:47:02.207Z,3.35
2018-07-30T07:49:30.580Z,3.47
2018-07-30T07:51:58.951Z,3.30
2018-07-30T07:54:27.304Z,3.20
2018-07-30T07:56:55.705Z,3.27
2018-07-30T07:59:24.239Z,3.58
2018-07-30T08:01:52.643Z,3.42
2018-07-30T08:04:21.655Z,3.60
2018-07-30T08:06:50.073Z,3.30
2018-07-30T08:09:18.430Z,3.30
2018-07-30T08:11:47.607Z,3.20
2018-07-30T08:14:15.928Z,3.30
2018-07-30T08:16:44.276Z,3.50
2018-07-30T08:19:12.637Z,3.12
2018-07-30T08:21:41.051Z,3.30
2018-07-30T08:24:09.191Z,3.52
2018-07-30T08:26:37.598Z,2.90
2018-07-30T08:29:06.399Z,2.95
2018-07-30T08:31:35.421Z,2.83
2018-07-30T08:34:04.387Z,3.30
2018-07-30T08:36:32.824Z,3.08
2018-07-30T08:39:01.178Z,2.70
2018-07-30T08:41:29.569Z,2.75
2018-07-30T08:43:57.929Z,2.83
2018-07-30T08:46:26.389Z,2.95
2018-07-30T08:48:55.185Z,2.90
2018-07-30T08:51:23.678Z,2.80
2018-07-30T08:53:52.059Z,3.02
2018-07-30T08:56:20.506Z,3.17
2018-07-30T08:58:48.867Z,3.15
2018-07-30T09:01:17.251Z,2.83
2018-07-30T09:03:45.581Z,2.90
2018-07-30T09:06:13.989Z,3.05
2018-07-30T09:08:42.347Z,3.02
2018-07-30T09:11:10.719Z,2.90
2018-07-30T09:13:39.088Z,2.80
2018-07-30T09:16:07.437Z,3.02
2018-07-30T09:18:35.788Z,2.90
2018-07-30T09:21:04.169Z,2.72
2018-07-30T09:23:32.557Z,2.77
2018-07-30T09:26:01.779Z,3.00
2018-07-30T09:28:30.127Z,2.60
2018-07-30T09:30:58.508Z,3.62
2018-07-30T09:33:26.912Z,3.02
2018-07-30T09:35:55.266Z,2.92
2018-07-30T09:38:23.638Z,2.92
2018-07-30T09:40:52.043Z,2.70
2018-07-30T09:43:20.386Z,2.67
2018-07-30T09:45:48.836Z,2.90
2018-07-30T09:48:17.200Z,2.85
2018-07-30T09:50:45.561Z,2.67
2018-07-30T09:53:13.952Z,2.80
2018-07-30T09:55:43.316Z,2.80
2018-07-30T09:58:11.676Z,2.77
2018-07-30T10:01:46.454Z,2.72
2018-07-30T10:04:14.853Z,2.75
2018-07-30T10:06:43.199Z,2.70
2018-07-30T10:09:12.448Z,2.40
2018-07-30T10:11:41.350Z,2.77
2018-07-30T10:14:09.688Z,2.58
2018-07-30T10:16:38.045Z,2.98
2018-07-30T10:19:06.416Z,2.90
2018-07-30T10:21:34.786Z,3.30
2018-07-30T10:24:03.478Z,2.87
2018-07-30T10:26:31.854Z,2.70
2018-07-30T10:29:00.241Z,2.75
2018-07-30T10:31:28.602Z,2.55
2018-07-30T10:33:57.002Z,2.90
2018-07-30T10:36:26.180Z,2.80
2018-07-30T10:38:54.648Z,2.92
2018-07-30T10:41:23.006Z,2.90
2018-07-30T10:43:51.370Z,3.05
2018-07-30T10:46:19.916Z,2.95
2018-07-30T10:48:48.336Z,3.55
2018-07-30T10:51:16.741Z,3.20
2018-07-30T10:53:45.136Z,3.00
2018-07-30T10:56:13.540Z,3.00
2018-07-30T10:58:41.944Z,3.10
2018-07-30T11:01:10.345Z,3.17
2018-07-30T11:03:38.726Z,2.67
2018-07-30T11:06:07.094Z,3.02
2018-07-30T11:08:35.455Z,3.33
2018-07-30T11:11:04.016Z,2.92
2018-07-30T11:13:32.407Z,2.90
2018-07-30T11:16:00.803Z,2.80
2018-07-30T11:18:29.199Z,2.85
2018-07-30T11:20:57.590Z,2.62
2018-07-30T11:23:26.120Z,3.00
2018-07-30T11:25:54.501Z,2.80
2018-07-30T11:28:23.019Z,2.72
2018-07-30T11:30:51.309Z,2.90
2018-07-30T11:33:19.709Z,2.70
2018-07-30T11:35:48.095Z,2.85
2018-07-30T11:38:16.526Z,2.70
2018-07-30T11:40:44.949Z,2.70
2018-07-30T11:43:13.976Z,2.90
2018-07-30T11:45:42.382Z,2.92
2018-07-30T11:48:10.796Z,2.90
2018-07-30T11:50:39.211Z,3.02
2018-07-30T11:53:07.607Z,3.33
2018-07-30T11:55:36.053Z,3.17
2018-07-30T11:58:04.492Z,2.85
2018-07-30T12:00:33.640Z,2.85
2018-07-30T12:03:05.932Z,3.00
2018-07-30T12:05:34.401Z,3.00
2018-07-30T12:08:03.192Z,3.62
2018-07-30T12:10:31.673Z,3.40
2018-07-30T12:13:00.049Z,3.00
2018-07-30T12:15:28.438Z,2.95
2018-07-30T12:17:56.895Z,2.92
2018-07-30T12:20:25.308Z,2.98
2018-07-30T12:22:53.672Z,3.37
2018-07-30T12:25:22.071Z,3.10
2018-07-30T12:27:50.529Z,3.10
2018-07-30T12:30:19.649Z,3.10
2018-07-30T12:32:48.014Z,3.17
2018-07-30T12:35:16.442Z,2.92
2018-07-30T12:37:45.367Z,2.98
2018-07-30T12:40:13.752Z,2.90
2018-07-30T12:42:42.241Z,3.00
2018-07-30T12:45:10.616Z,2.75
2018-07-30T12:47:39.001Z,3.20
2018-07-30T12:50:07.442Z,3.27
2018-07-30T12:52:36.003Z,3.02
2018-07-30T12:55:04.420Z,3.17
2018-07-30T12:57:32.825Z,2.72
2018-07-30T13:00:01.250Z,3.02
2018-07-30T13:02:29.745Z,2.95
2018-07-30T13:04:58.167Z,3.20
2018-07-30T13:07:26.562Z,3.08
2018-07-30T13:09:54.986Z,3.20
2018-07-30T13:12:23.364Z,3.12
2018-07-30T13:14:51.775Z,2.80
2018-07-30T13:17:20.140Z,3.35
2018-07-30T13:19:48.487Z,2.95
2018-07-30T13:22:16.819Z,3.05
2018-07-30T13:24:45.269Z,3.20
2018-07-30T13:27:13.638Z,3.25
2018-07-30T13:29:42.867Z,3.30
2018-07-30T13:32:11.257Z,3.40
2018-07-30T13:34:39.716Z,3.12
2018-07-30T13:37:08.646Z,3.08
2018-07-30T13:39:37.099Z,3.52
2018-07-30T13:42:05.533Z,3.25
2018-07-30T13:44:33.892Z,2.92
2018-07-30T13:47:02.278Z,3.27
2018-07-30T13:49:30.658Z,3.40
2018-07-30T13:51:59.218Z,3.00
2018-07-30T13:54:27.608Z,3.25
2018-07-30T13:56:56.060Z,3.50
2018-07-30T13:59:24.460Z,3.17
2018-07-30T14:01:53.075Z,3.47
2018-07-30T14:04:21.546Z,3.27
2018-07-30T14:06:49.951Z,3.20
2018-07-30T14:09:18.351Z,3.35
2018-07-30T14:11:46.831Z,2.92
2018-07-30T14:14:15.900Z,3.37
2018-07-30T14:16:44.269Z,3.47
2018-07-30T14:19:12.703Z,3.15
2018-07-30T14:21:41.897Z,3.30
2018-07-30T14:24:10.577Z,3.25
2018-07-30T14:26:39.467Z,3.22
2018-07-30T14:29:07.887Z,3.00
2018-07-30T14:31:36.840Z,3.15
2018-07-30T14:34:05.386Z,3.37
2018-07-30T14:36:34.103Z,3.35
2018-07-30T14:39:02.565Z,3.15
2018-07-30T14:41:32.369Z,3.15
2018-07-30T14:44:00.864Z,3.22
2018-07-30T14:46:29.300Z,3.15
2018-07-30T14:48:57.680Z,3.33
2018-07-30T14:51:26.096Z,3.45
2018-07-30T14:53:54.461Z,3.50
2018-07-30T14:56:23.178Z,3.50
2018-07-30T14:58:51.538Z,3.30
2018-07-30T15:01:19.922Z,3.10
2018-07-30T15:03:48.794Z,3.20
2018-07-30T15:06:17.200Z,4.08
2018-07-30T15:08:46.216Z,3.37
2018-07-30T15:11:14.625Z,3.80
2018-07-30T15:13:43.037Z,3.33
2018-07-30T15:16:11.425Z,3.42
2018-07-30T15:18:39.848Z,3.35
2018-07-30T15:21:08.613Z,3.12
2018-07-30T15:23:37.075Z,3.35
2018-07-30T15:26:05.668Z,3.58
2018-07-30T15:28:34.060Z,3.20
2018-07-30T15:31:02.437Z,3.10
2018-07-30T15:33:30.816Z,3.42
2018-07-30T15:35:59.186Z,3.22
2018-07-30T15:38:27.561Z,3.02
2018-07-30T15:40:55.934Z,3.58
2018-07-30T15:43:24.279Z,3.27
2018-07-30T15:45:52.630Z,3.45
2018-07-30T15:48:21.011Z,3.50
2018-07-30T15:50:49.529Z,3.10
2018-07-30T15:53:17.935Z,3.20
2018-07-30T15:55:46.351Z,3.58
2018-07-30T15:58:14.841Z,3.27
2018-07-30T16:00:43.297Z,3.40
2018-07-30T16:03:11.757Z,3.35
2018-07-30T16:05:40.115Z,4.05
2018-07-30T16:08:08.543Z,3.42
2018-07-30T16:10:37.513Z,3.17
2018-07-30T16:13:05.908Z,3.50
2018-07-30T16:15:34.321Z,3.50
2018-07-30T16:18:02.929Z,3.50
2018-07-30T16:20:31.299Z,3.50
2018-07-30T16:22:59.696Z,3.58
2018-07-30T16:25:28.015Z,3.47
2018-07-30T16:27:56.396Z,3.33
2018-07-30T16:30:24.926Z,3.55
2018-07-30T16:32:53.272Z,6.35
2018-07-30T16:35:21.683Z,5.17
2018-07-30T16:37:50.170Z,3.42
2018-07-30T16:40:18.523Z,3.58
2018-07-30T16:42:46.950Z,3.50
2018-07-30T16:45:15.404Z,3.42
2018-07-30T16:47:43.859Z,3.30
2018-07-30T16:50:12.236Z,3.50
2018-07-30T16:52:40.689Z,3.20
2018-07-30T16:55:09.148Z,3.60
2018-07-30T16:57:37.550Z,3.35
2018-07-30T17:00:08.177Z,3.42
2018-07-30T17:02:36.585Z,3.72
2018-07-30T17:05:05.585Z,3.33
2018-07-30T17:07:34.049Z,3.50
2018-07-30T17:10:02.487Z,3.95
2018-07-30T17:12:30.956Z,3.55
2018-07-30T17:14:59.422Z,3.85
2018-07-30T17:17:27.797Z,5.03
2018-07-30T17:19:56.277Z,3.60
2018-07-30T17:22:25.002Z,4.25
2018-07-30T17:24:53.635Z,3.22
2018-07-30T17:27:22.137Z,3.85
2018-07-30T17:29:50.571Z,4.08
2018-07-30T17:32:19.240Z,3.67
2018-07-30T17:34:47.622Z,3.55
2018-07-30T17:37:16.001Z,3.67
2018-07-30T17:39:44.389Z,3.37
2018-07-30T17:42:12.805Z,3.45
2018-07-30T17:44:41.857Z,5.60
2018-07-30T17:47:10.295Z,4.03
2018-07-30T17:49:38.668Z,4.15
2018-07-30T17:52:07.328Z,4.60
2018-07-30T17:54:35.739Z,6.70
2018-07-30T17:57:04.177Z,4.78
2018-07-30T17:59:32.650Z,4.53
2018-07-30T18:02:01.065Z,4.40
2018-07-30T18:04:29.535Z,4.65
2018-07-30T18:06:57.928Z,3.80
2018-07-30T18:09:26.347Z,3.92
2018-07-30T18:11:54.707Z,3.98
2018-07-30T18:14:23.111Z,4.10
2018-07-30T18:16:51.500Z,3.87
2018-07-30T18:19:19.892Z,3.75
2018-07-30T18:21:48.255Z,3.98
2018-07-30T18:24:17.224Z,4.33
2018-07-30T18:26:45.616Z,4.35
2018-07-30T18:29:14.594Z,3.85
2018-07-30T18:31:43.140Z,4.75
2018-07-30T18:34:11.605Z,5.70
2018-07-30T18:36:40.718Z,6.17
2018-07-30T18:39:09.203Z,9.98
2018-07-30T18:41:37.627Z,10.90
2018-07-30T18:44:06.059Z,10.05
2018-07-30T18:46:34.499Z,8.80
2018-07-30T18:49:02.881Z,9.00
2018-07-30T18:51:31.249Z,6.85
2018-07-30T18:53:59.623Z,7.60
2018-07-30T18:56:28.005Z,6.28
2018-07-30T18:58:56.402Z,5.42
2018-07-30T19:01:24.509Z,5.95
2018-07-30T19:03:52.870Z,5.00
2018-07-30T19:06:21.206Z,4.87
2018-07-30T19:08:49.598Z,4.67
2018-07-30T19:11:17.951Z,5.33
2018-07-30T19:13:46.596Z,5.85
2018-07-30T19:16:15.017Z,5.87
2018-07-30T19:18:43.423Z,6.65
2018-07-30T19:21:12.041Z,5.20
2018-07-30T19:23:40.502Z,5.60
2018-07-30T19:26:08.924Z,5.67
2018-07-30T19:28:37.316Z,6.28
2018-07-30T19:31:06.078Z,6.30
2018-07-30T19:33:35.141Z,6.50
2018-07-30T19:36:03.545Z,5.05
2018-07-30T19:38:31.905Z,5.15
2018-07-30T19:41:00.354Z,4.80
2018-07-30T19:43:28.756Z,5.30
2018-07-30T19:45:57.195Z,6.10
2018-07-30T19:48:25.586Z,6.10
2018-07-30T19:50:54.008Z,6.05
2018-07-30T19:53:22.538Z,5.80
2018-07-30T19:55:50.914Z,5.55
2018-07-30T19:58:19.607Z,5.67
2018-07-30T20:00:47.788Z,5.67
2018-07-30T20:03:16.325Z,7.47
2018-07-30T20:05:44.735Z,7.20
2018-07-30T20:08:13.277Z,8.60
2018-07-30T20:10:41.653Z,7.00
2018-07-30T20:13:10.065Z,6.17
2018-07-30T20:15:38.521Z,6.03
2018-07-30T20:18:07.075Z,6.00
2018-07-30T20:20:35.386Z,6.03
2018-07-30T20:23:03.867Z,6.47
2018-07-30T20:25:32.288Z,5.83
2018-07-30T20:28:00.696Z,5.72
2018-07-30T20:30:29.070Z,5.53
2018-07-30T20:32:57.499Z,5.50
2018-07-30T20:35:25.910Z,5.60
2018-07-30T20:37:54.262Z,5.37
2018-07-30T20:40:22.724Z,5.00
2018-07-30T20:42:51.116Z,4.80
2018-07-30T20:45:19.555Z,5.28
2018-07-30T20:47:47.926Z,5.47
2018-07-30T20:50:16.354Z,4.90
2018-07-30T20:52:44.746Z,4.53
2018-07-30T20:55:13.240Z,4.90
2018-07-30T20:57:42.342Z,4.75
2018-07-30T21:00:11.002Z,4.80
2018-07-30T21:02:39.422Z,5.30
2018-07-30T21:05:07.804Z,4.60
2018-07-30T21:07:36.159Z,5.03
2018-07-30T21:10:04.695Z,4.45
2018-07-30T21:12:33.115Z,4.83
2018-07-30T21:15:01.534Z,4.53
2018-07-30T21:17:29.900Z,4.83
2018-07-30T21:19:58.364Z,4.78
2018-07-30T21:22:26.745Z,4.65
2018-07-30T21:24:55.249Z,4.85
2018-07-30T21:27:24.200Z,4.50
2018-07-30T21:29:52.560Z,4.40
2018-07-30T21:32:20.980Z,4.35
2018-07-30T21:34:49.447Z,4.70
2018-07-30T21:37:17.844Z,4.55
2018-07-30T21:39:46.207Z,4.58
2018-07-30T21:42:14.574Z,4.65
2018-07-30T21:44:42.994Z,4.50
2018-07-30T21:47:11.376Z,4.30
2018-07-30T21:49:40.113Z,4.33
2018-07-30T21:52:08.473Z,4.42
2018-07-30T21:54:36.871Z,4.78
2018-07-30T21:57:05.865Z,4.78
2018-07-30T21:59:34.234Z,4.53
2018-07-30T22:02:02.629Z,4.40
2018-07-30T22:04:30.964Z,4.40
2018-07-30T22:06:59.291Z,4.83
2018-07-30T22:09:27.664Z,4.10
2018-07-30T22:11:56.052Z,4.70
2018-07-30T22:14:24.359Z,4.58
2018-07-30T22:16:52.733Z,4.80
2018-07-30T22:19:21.070Z,4.87
2018-07-30T22:21:49.385Z,4.97
2018-07-30T22:24:17.732Z,5.58
2018-07-30T22:26:46.129Z,5.25
2018-07-30T22:29:14.500Z,5.47
2018-07-30T22:31:43.049Z,5.05
2018-07-30T22:34:11.480Z,5.60
2018-07-30T22:36:39.872Z,5.40
2018-07-30T22:39:10.495Z,5.00
2018-07-30T22:41:39.052Z,5.08
2018-07-30T22:44:07.401Z,4.70
2018-07-30T22:46:35.748Z,5.28
2018-07-30T22:49:04.174Z,5.05
2018-07-30T22:51:32.530Z,5.17
2018-07-30T22:54:00.662Z,4.97
2018-07-30T22:56:29.056Z,5.58
2018-07-30T22:58:57.421Z,4.72
2018-07-30T23:01:25.761Z,4.53
2018-07-30T23:03:54.201Z,4.97
2018-07-30T23:06:22.563Z,4.80
2018-07-30T23:08:50.886Z,4.75
2018-07-30T23:11:19.243Z,4.40
2018-07-30T23:13:47.603Z,4.80
2018-07-30T23:16:16.002Z,4.17
2018-07-30T23:18:44.282Z,4.30
2018-07-30T23:21:12.650Z,4.40
2018-07-30T23:23:40.992Z,4.22
2018-07-30T23:26:09.324Z,4.53
2018-07-30T23:28:37.638Z,4.90
2018-07-30T23:31:05.992Z,4.80
2018-07-30T23:33:34.316Z,4.30
2018-07-30T23:36:02.647Z,4.30
2018-07-30T23:38:30.977Z,4.40
2018-07-30T23:40:59.347Z,4.75
2018-07-30T23:43:27.877Z,5.20
2018-07-30T23:45:56.416Z,4.90
2018-07-30T23:48:24.753Z,4.58
2018-07-30T23:50:53.600Z,4.90
2018-07-30T23:53:21.959Z,5.25
2018-07-30T23:55:50.304Z,4.62
2018-07-30T23:58:18.633Z,4.75
